createdAt,value
2023-11-08T00:01:24.546Z,99086.97
2023-11-08T00:03:51.903Z,99088.63
2023-11-08T00:06:19.339Z,99079.13
2023-11-08T00:08:48.616Z,99084.19
2023-11-08T00:11:16.930Z,99090.97
2023-11-08T00:13:44.691Z,99085.06
2023-11-08T00:16:11.962Z,99096.16
2023-11-08T00:18:39.289Z,99092.75
2023-11-08T00:21:07.994Z,99091.22
2023-11-08T00:23:35.304Z,99090.44
2023-11-08T00:26:02.694Z,99093.13
2023-11-08T00:28:29.910Z,99090.59
2023-11-08T00:30:57.166Z,99089.72
2023-11-08T00:33:25.910Z,99095.59
2023-11-08T00:35:53.204Z,99096.41
2023-11-08T00:38:20.475Z,99086.94
2023-11-08T00:40:47.829Z,99086.06
2023-11-08T00:43:15.201Z,99088.56
2023-11-08T00:45:42.663Z,99079.06
2023-11-08T00:48:10.074Z,99083.28
2023-11-08T00:50:37.479Z,99088.31
2023-11-08T00:53:05.198Z,99087.97
2023-11-08T00:55:34.223Z,99089.53
2023-11-08T00:58:01.649Z,99088.50
2023-11-08T01:00:29.037Z,99092.72
2023-11-08T01:02:56.451Z,99097.72
2023-11-08T01:05:24.057Z,99090.91
2023-11-08T01:07:51.331Z,99100.09
2023-11-08T01:10:18.841Z,99093.28
2023-11-08T01:12:46.280Z,99094.22
2023-11-08T01:15:13.664Z,99094.34
2023-11-08T01:17:41.102Z,99094.22
2023-11-08T01:20:08.644Z,99095.25
2023-11-08T01:22:36.127Z,99094.38
2023-11-08T01:25:04.216Z,99094.38
2023-11-08T01:27:31.714Z,99091.00
2023-11-08T01:29:59.973Z,99087.69
2023-11-08T01:32:27.824Z,99091.91
2023-11-08T01:34:55.148Z,99094.56
2023-11-08T01:37:22.511Z,99101.44
2023-11-08T01:39:49.816Z,99094.47
2023-11-08T01:42:19.341Z,99093.72
2023-11-08T01:44:46.671Z,99095.44
2023-11-08T01:47:15.940Z,99091.06
2023-11-08T01:49:45.201Z,99093.59
2023-11-08T01:52:13.029Z,99090.72
2023-11-08T01:54:42.579Z,99100.88
2023-11-08T01:57:09.859Z,99092.94
2023-11-08T01:59:37.490Z,99098.78
2023-11-08T02:02:04.966Z,99108.00
2023-11-08T02:04:33.349Z,99099.47
2023-11-08T02:07:01.816Z,99097.03
2023-11-08T02:09:32.209Z,99109.03
2023-11-08T02:12:01.861Z,99109.88
2023-11-08T02:14:29.869Z,99115.94
2023-11-08T02:16:57.285Z,99113.44
2023-11-08T02:19:24.732Z,99110.94
2023-11-08T02:22:12.115Z,99113.56
2023-11-08T02:24:39.601Z,99111.91
2023-11-08T02:27:07.356Z,99116.31
2023-11-08T02:29:34.653Z,99111.13
2023-11-08T02:32:02.090Z,99110.28
2023-11-08T02:34:30.063Z,99103.78
2023-11-08T02:36:57.405Z,99107.19
2023-11-08T02:39:24.759Z,99102.13
2023-11-08T02:41:52.461Z,99098.69
2023-11-08T02:44:20.221Z,99099.50
2023-11-08T02:46:47.504Z,99100.34
2023-11-08T02:49:15.241Z,99102.84
2023-11-08T02:51:44.738Z,99097.66
2023-11-08T02:54:12.104Z,99099.28
2023-11-08T02:56:39.873Z,99101.66
2023-11-08T02:59:07.222Z,99101.47
2023-11-08T03:01:34.497Z,99101.38
2023-11-08T03:04:02.450Z,99095.34
2023-11-08T03:06:30.129Z,99104.53
2023-11-08T03:08:57.487Z,99107.75
2023-11-08T03:11:24.995Z,99112.00
2023-11-08T03:13:52.318Z,99105.97
2023-11-08T03:16:19.615Z,99113.53
2023-11-08T03:18:46.953Z,99120.28
2023-11-08T03:21:14.234Z,99118.59
2023-11-08T03:23:41.574Z,99122.22
2023-11-08T03:26:09.741Z,99123.16
2023-11-08T03:28:37.106Z,99118.09
2023-11-08T03:31:04.511Z,99127.66
2023-11-08T03:33:31.814Z,99125.25
2023-11-08T03:35:59.209Z,99127.84
2023-11-08T03:38:26.450Z,99126.19
2023-11-08T03:40:53.756Z,99121.88
2023-11-08T03:43:21.031Z,99126.22
2023-11-08T03:45:48.341Z,99133.03
2023-11-08T03:48:15.743Z,99128.78
2023-11-08T03:50:43.230Z,99128.75
2023-11-08T03:53:11.404Z,99132.22
2023-11-08T03:55:40.005Z,99133.94
2023-11-08T03:58:07.321Z,99110.75
2023-11-08T04:00:34.664Z,99136.00
2023-11-08T04:03:04.769Z,99136.13
2023-11-08T04:05:32.182Z,99128.47
2023-11-08T04:07:59.547Z,99137.06
2023-11-08T04:10:27.219Z,99122.31
2023-11-08T04:12:54.574Z,99134.63
2023-11-08T04:15:21.878Z,99141.47
2023-11-08T04:17:49.507Z,99139.84
2023-11-08T04:20:16.970Z,99144.16
2023-11-08T04:22:44.345Z,99155.38
2023-11-08T04:25:12.580Z,99143.56
2023-11-08T04:27:40.327Z,99145.31
2023-11-08T04:30:07.951Z,99150.38
2023-11-08T04:32:35.243Z,99140.97
2023-11-08T04:35:02.953Z,99147.00
2023-11-08T04:37:31.701Z,99153.88
2023-11-08T04:39:59.015Z,99148.72
2023-11-08T04:42:27.307Z,99149.56
2023-11-08T04:44:54.603Z,99153.06
2023-11-08T04:47:22.328Z,99152.25
2023-11-08T04:49:49.955Z,99145.50
2023-11-08T04:52:18.521Z,99155.63
2023-11-08T04:54:54.028Z,99160.84
2023-11-08T04:57:22.546Z,99161.63
2023-11-08T04:59:50.641Z,99154.81
2023-11-08T05:02:18.526Z,99155.81
2023-11-08T05:04:49.573Z,99163.28
2023-11-08T05:07:19.435Z,99138.97
2023-11-08T05:09:47.885Z,99168.34
2023-11-08T05:12:15.189Z,99169.25
2023-11-08T05:14:42.643Z,99174.34
2023-11-08T05:17:09.949Z,99163.22
2023-11-08T05:19:37.329Z,99170.03
2023-11-08T05:22:05.109Z,99163.25
2023-11-08T05:24:32.482Z,99165.91
2023-11-08T05:27:00.744Z,99159.06
2023-11-08T05:29:28.075Z,99170.28
2023-11-08T05:31:55.435Z,99172.09
2023-11-08T05:34:23.178Z,99170.38
2023-11-08T05:36:50.672Z,99176.50
2023-11-08T05:39:26.252Z,99175.88
2023-11-08T05:41:54.244Z,99181.06
2023-11-08T05:44:21.728Z,99182.81
2023-11-08T05:46:50.616Z,99179.38
2023-11-08T05:49:18.532Z,99182.06
2023-11-08T05:51:45.968Z,99175.25
2023-11-08T05:54:13.514Z,99181.38
2023-11-08T05:56:40.828Z,99178.00
2023-11-08T05:59:08.367Z,99192.53
2023-11-08T06:01:35.764Z,99195.19
2023-11-08T06:04:05.220Z,99200.38
2023-11-08T06:06:32.583Z,99191.94
2023-11-08T06:08:59.843Z,99202.19
2023-11-08T06:11:28.137Z,99202.13
2023-11-08T06:13:55.495Z,99204.66
2023-11-08T06:16:22.741Z,99204.75
2023-11-08T06:18:50.284Z,99203.03
2023-11-08T06:21:19.660Z,99205.53
2023-11-08T06:23:47.007Z,99202.91
2023-11-08T06:26:17.857Z,99202.09
2023-11-08T06:28:45.606Z,99202.91
2023-11-08T06:31:13.473Z,99209.91
2023-11-08T06:33:40.988Z,99206.56
2023-11-08T06:36:08.429Z,99205.06
2023-11-08T06:38:35.802Z,99211.22
2023-11-08T06:41:03.171Z,99212.16
2023-11-08T06:43:30.452Z,99204.44
2023-11-08T06:45:57.869Z,99201.94
2023-11-08T06:48:26.631Z,99203.84
2023-11-08T06:50:54.053Z,99190.69
2023-11-08T06:53:21.386Z,99208.88
2023-11-08T06:55:48.766Z,99214.94
2023-11-08T06:58:16.079Z,99213.19
2023-11-08T07:00:44.332Z,99211.44
2023-11-08T07:03:11.766Z,99213.28
2023-11-08T07:05:39.636Z,99218.56
2023-11-08T07:08:09.765Z,99213.53
2023-11-08T07:10:37.230Z,99209.41
2023-11-08T07:13:04.564Z,99210.41
2023-11-08T07:15:32.104Z,99213.94
2023-11-08T07:17:59.593Z,99218.44
2023-11-08T07:20:26.910Z,99212.78
2023-11-08T07:22:54.269Z,99210.31
2023-11-08T07:25:21.570Z,99217.34
2023-11-08T07:27:49.080Z,99220.97
2023-11-08T07:30:18.112Z,99215.94
2023-11-08T07:32:49.289Z,99219.59
2023-11-08T07:35:16.674Z,99222.38
2023-11-08T07:37:43.912Z,99223.38
2023-11-08T07:40:14.128Z,99226.84
2023-11-08T07:42:42.016Z,99229.28
2023-11-08T07:45:09.870Z,99232.69
2023-11-08T07:47:37.263Z,99229.25
2023-11-08T07:50:06.307Z,99226.63
2023-11-08T07:52:33.667Z,99230.75
2023-11-08T07:55:01.027Z,99234.13
2023-11-08T07:57:28.423Z,99234.09
2023-11-08T07:59:56.149Z,99223.81
2023-11-08T08:02:23.478Z,99234.13
2023-11-08T08:04:50.894Z,99240.38
2023-11-08T08:07:18.287Z,99236.13
2023-11-08T08:09:46.287Z,99243.25
2023-11-08T08:12:14.215Z,99247.97
2023-11-08T08:14:41.943Z,99243.81
2023-11-08T08:17:09.790Z,99253.25
2023-11-08T08:19:37.379Z,99255.81
2023-11-08T08:22:05.656Z,99249.00
2023-11-08T08:24:33.178Z,99253.25
2023-11-08T08:27:00.835Z,99253.09
2023-11-08T08:29:29.662Z,99256.28
2023-11-08T08:31:56.983Z,99251.75
2023-11-08T08:34:30.809Z,99250.50
2023-11-08T08:36:59.202Z,99261.31
2023-11-08T08:39:29.635Z,99263.69
2023-11-08T08:41:58.416Z,99261.78
2023-11-08T08:44:25.774Z,99263.31
2023-11-08T08:46:53.282Z,99265.88
2023-11-08T08:49:22.968Z,99265.09
2023-11-08T08:51:51.132Z,99268.63
2023-11-08T08:54:19.589Z,99259.28
2023-11-08T08:56:49.684Z,99267.22
2023-11-08T08:59:17.220Z,99265.00
2023-11-08T09:01:44.812Z,99272.28
2023-11-08T09:04:12.338Z,99269.22
2023-11-08T09:06:40.245Z,99265.88
2023-11-08T09:09:14.605Z,99264.28
2023-11-08T09:11:42.133Z,99260.09
2023-11-08T09:14:10.037Z,99262.78
2023-11-08T09:16:39.467Z,99265.47
2023-11-08T09:19:11.271Z,99263.94
2023-11-08T09:21:39.289Z,99260.03
2023-11-08T09:24:08.223Z,99256.41
2023-11-08T09:26:36.112Z,99257.09
2023-11-08T09:29:04.404Z,99251.63
2023-11-08T09:31:31.837Z,99258.59
2023-11-08T09:34:01.215Z,99256.75
2023-11-08T09:36:28.885Z,99256.47
2023-11-08T09:38:56.603Z,99266.63
2023-11-08T09:41:25.381Z,99273.47
2023-11-08T09:43:53.836Z,99266.56
2023-11-08T09:46:22.061Z,99263.75
2023-11-08T09:48:55.774Z,99261.00
2023-11-08T09:51:23.346Z,99267.78
2023-11-08T09:53:51.433Z,99268.50
2023-11-08T09:56:19.352Z,99257.28
2023-11-08T09:58:47.243Z,99262.34
2023-11-08T10:01:16.796Z,99259.63
2023-11-08T10:03:45.200Z,99258.81
2023-11-08T10:06:12.849Z,99258.94
2023-11-08T10:08:40.299Z,99255.59
2023-11-08T10:11:07.830Z,99254.00
2023-11-08T10:13:52.969Z,99253.22
2023-11-08T10:16:22.335Z,99252.25
2023-11-08T10:19:36.781Z,99253.03
2023-11-08T10:21:50.438Z,99245.28
2023-11-08T10:24:18.545Z,99246.97
2023-11-08T10:26:47.588Z,99243.47
2023-11-08T10:29:15.167Z,99241.91
2023-11-08T10:31:43.272Z,99253.09
2023-11-08T10:34:14.130Z,99248.94
2023-11-08T10:36:41.663Z,99237.78
2023-11-08T10:39:15.496Z,99234.31
2023-11-08T10:41:44.433Z,99233.47
2023-11-08T10:44:13.206Z,99241.34
2023-11-08T10:46:41.538Z,99234.63
2023-11-08T10:49:10.271Z,99243.34
2023-11-08T10:51:43.722Z,99236.41
2023-11-08T10:54:11.178Z,99242.25
2023-11-08T10:56:42.059Z,99244.66
2023-11-08T10:59:11.543Z,99242.91
2023-11-08T11:01:39.723Z,99239.44
2023-11-08T11:04:08.811Z,99239.44
2023-11-08T11:06:37.242Z,99238.63
2023-11-08T11:09:09.919Z,99244.63
2023-11-08T11:11:43.833Z,99243.81
2023-11-08T11:14:31.465Z,99240.47
2023-11-08T11:17:04.059Z,99241.41
2023-11-08T11:19:32.438Z,99231.19
2023-11-08T11:22:06.251Z,99233.91
2023-11-08T11:24:33.610Z,99231.31
2023-11-08T11:27:03.078Z,99232.06
2023-11-08T11:29:30.596Z,99233.59
2023-11-08T11:31:58.329Z,99232.47
2023-11-08T11:34:30.573Z,99226.31
2023-11-08T11:37:15.103Z,99232.28
2023-11-08T11:39:50.463Z,99227.94
2023-11-08T11:42:21.951Z,99233.94
2023-11-08T11:44:50.690Z,99232.19
2023-11-08T11:47:20.589Z,99226.16
2023-11-08T11:49:49.331Z,99224.25
2023-11-08T11:52:18.322Z,99218.00
2023-11-08T11:54:48.366Z,99216.16
2023-11-08T11:57:17.015Z,99211.97
2023-11-08T11:59:45.592Z,99214.34
2023-11-08T12:02:13.049Z,99227.81
2023-11-08T12:04:41.128Z,99220.91
2023-11-08T12:07:10.389Z,99214.78
2023-11-08T12:09:39.154Z,99221.63
2023-11-08T12:12:08.207Z,99220.88
2023-11-08T12:14:36.990Z,99215.75
2023-11-08T12:17:08.862Z,99209.72
2023-11-08T12:19:36.607Z,99215.78
2023-11-08T12:22:06.534Z,99220.91
2023-11-08T12:24:34.860Z,99218.38
2023-11-08T12:27:02.981Z,99214.09
2023-11-08T12:29:30.755Z,99214.03
2023-11-08T12:31:58.629Z,99208.00
2023-11-08T12:34:27.173Z,99203.72
2023-11-08T12:36:58.274Z,99199.47
2023-11-08T12:39:28.928Z,99199.47
2023-11-08T12:41:56.890Z,99197.72
2023-11-08T12:44:25.616Z,99195.88
2023-11-08T12:46:58.087Z,99201.75
2023-11-08T12:49:27.260Z,99204.19
2023-11-08T12:51:55.196Z,99205.75
2023-11-08T12:54:23.797Z,99207.47
2023-11-08T12:56:51.397Z,99214.16
2023-11-08T12:59:20.071Z,99203.66
2023-11-08T13:01:51.878Z,99205.56
2023-11-08T13:04:20.933Z,99191.47
2023-11-08T13:06:49.612Z,99200.78
2023-11-08T13:09:17.304Z,99204.09
2023-11-08T13:11:44.862Z,99207.25
2023-11-08T13:14:12.653Z,99215.56
2023-11-08T13:16:40.590Z,99205.91
2023-11-08T13:19:08.295Z,99209.13
2023-11-08T13:21:35.873Z,99205.28
2023-11-08T13:24:07.203Z,99196.59
2023-11-08T13:26:35.797Z,99190.38
2023-11-08T13:29:03.984Z,99194.63
2023-11-08T13:31:31.591Z,99197.19
2023-11-08T13:33:59.335Z,99196.16
2023-11-08T13:36:29.905Z,99211.41
2023-11-08T13:38:58.253Z,99218.94
2023-11-08T13:41:26.225Z,99223.19
2023-11-08T13:43:53.888Z,99230.91
2023-11-08T13:46:22.875Z,99227.56
2023-11-08T13:48:50.594Z,99231.34
2023-11-08T13:51:18.214Z,99227.81
2023-11-08T13:53:45.849Z,99228.66
2023-11-08T13:56:13.526Z,99226.13
2023-11-08T13:58:41.126Z,99228.78
2023-11-08T14:01:11.881Z,99235.03
2023-11-08T14:03:40.298Z,99235.84
2023-11-08T14:06:09.221Z,99244.22
2023-11-08T14:08:39.049Z,99253.53
2023-11-08T14:11:06.786Z,99259.50
2023-11-08T14:13:34.642Z,99247.66
2023-11-08T14:16:02.307Z,99247.66
2023-11-08T14:18:29.760Z,99250.97
2023-11-08T14:20:58.038Z,99244.03
2023-11-08T14:23:25.509Z,99248.31
2023-11-08T14:25:52.925Z,99251.53
2023-11-08T14:28:20.702Z,99242.88
2023-11-08T14:30:48.426Z,99243.75
2023-11-08T14:33:18.117Z,99239.66
2023-11-08T14:35:46.026Z,99241.31
2023-11-08T14:38:13.796Z,99241.38
2023-11-08T14:40:42.112Z,99244.69
2023-11-08T14:43:11.141Z,99242.09
2023-11-08T14:45:38.867Z,99245.34
2023-11-08T14:48:06.910Z,99238.28
2023-11-08T14:50:35.095Z,99234.06
2023-11-08T14:53:03.737Z,99237.28
2023-11-08T14:55:31.414Z,99230.34
2023-11-08T14:57:59.068Z,99235.03
2023-11-08T15:00:27.259Z,99239.13
2023-11-08T15:02:57.540Z,99227.56
2023-11-08T15:05:25.079Z,99240.38
2023-11-08T15:09:47.564Z,99234.84
2023-11-08T15:10:41.174Z,99231.09
2023-11-08T15:13:09.007Z,99233.59
2023-11-08T15:15:36.503Z,99241.38
2023-11-08T15:18:04.053Z,99242.94
2023-11-08T15:20:31.539Z,99247.34
2023-11-08T15:22:59.190Z,99244.63
2023-11-08T15:25:26.719Z,99239.44
2023-11-08T15:27:54.375Z,99244.63
2023-11-08T15:30:21.934Z,99237.97
2023-11-08T15:32:49.540Z,99241.34
2023-11-08T15:35:17.050Z,99238.56
2023-11-08T15:37:44.662Z,99239.53
2023-11-08T15:40:13.846Z,99224.09
2023-11-08T15:42:41.526Z,99227.78
2023-11-08T15:45:09.607Z,99227.59
2023-11-08T15:47:37.376Z,99219.50
2023-11-08T15:50:06.579Z,99219.31
2023-11-08T15:52:34.076Z,99214.03
2023-11-08T15:55:01.561Z,99214.81
2023-11-08T15:57:29.994Z,99226.69
2023-11-08T15:59:57.682Z,99223.22
2023-11-08T16:02:25.162Z,99225.84
2023-11-08T16:04:52.881Z,99226.69
2023-11-08T16:07:20.677Z,99231.03
2023-11-08T16:09:48.226Z,99222.34
2023-11-08T16:12:15.772Z,99227.56
2023-11-08T16:14:43.449Z,99233.47
2023-11-08T16:17:10.889Z,99227.56
2023-11-08T16:19:38.298Z,99228.44
2023-11-08T16:22:05.825Z,99224.97
2023-11-08T16:24:33.249Z,99221.03
2023-11-08T16:27:00.945Z,99212.41
2023-11-08T16:29:50.921Z,99209.97
2023-11-08T16:32:35.126Z,99216.16
2023-11-08T16:35:03.880Z,99208.34
2023-11-08T16:37:31.606Z,99205.88
2023-11-08T16:39:59.051Z,99210.13
2023-11-08T16:42:27.125Z,99198.19
2023-11-08T16:44:54.710Z,99193.16
2023-11-08T16:47:23.276Z,99192.56
2023-11-08T16:49:52.159Z,99187.34
2023-11-08T16:52:20.566Z,99187.31
2023-11-08T16:54:48.130Z,99183.84
2023-11-08T16:57:15.768Z,99182.88
2023-11-08T16:59:43.333Z,99181.97
2023-11-08T17:02:10.787Z,99175.97
2023-11-08T17:04:38.987Z,99177.97
2023-11-08T17:07:06.997Z,99180.31
2023-11-08T17:09:38.732Z,99175.91
2023-11-08T17:12:09.836Z,99175.75
2023-11-08T17:14:37.916Z,99182.53
2023-11-08T17:17:05.562Z,99174.00
2023-11-08T17:19:33.206Z,99184.16
2023-11-08T17:22:01.207Z,99185.91
2023-11-08T17:24:28.670Z,99190.91
2023-11-08T17:26:56.205Z,99194.56
2023-11-08T17:29:23.707Z,99188.72
2023-11-08T17:31:52.515Z,99191.44
2023-11-08T17:34:20.289Z,99182.81
2023-11-08T17:36:48.855Z,99184.53
2023-11-08T17:39:16.558Z,99179.41
2023-11-08T17:41:44.117Z,99187.06
2023-11-08T17:44:12.634Z,99184.50
2023-11-08T17:46:40.155Z,99181.13
2023-11-08T17:49:07.952Z,99185.44
2023-11-08T17:51:38.855Z,99187.03
2023-11-08T17:54:07.240Z,99177.63
2023-11-08T17:56:34.810Z,99183.50
2023-11-08T17:59:02.384Z,99177.63
2023-11-08T18:01:29.914Z,99186.41
2023-11-08T18:03:57.440Z,99185.66
2023-11-08T18:06:26.293Z,99181.28
2023-11-08T18:08:54.572Z,99179.69
2023-11-08T18:11:22.238Z,99178.75
2023-11-08T18:13:50.192Z,99179.81
2023-11-08T18:16:18.779Z,99181.59
2023-11-08T18:18:46.544Z,99172.22
2023-11-08T18:21:14.179Z,99174.00
2023-11-08T18:23:42.918Z,99175.63
2023-11-08T18:26:10.422Z,99179.28
2023-11-08T18:28:37.970Z,99174.78
2023-11-08T18:31:05.652Z,99176.56
2023-11-08T18:33:33.203Z,99179.91
2023-11-08T18:36:00.906Z,99174.06
2023-11-08T18:38:31.594Z,99176.56
2023-11-08T18:40:59.995Z,99174.06
2023-11-08T18:43:27.732Z,99173.00
2023-11-08T18:45:56.059Z,99174.63
2023-11-08T18:48:26.013Z,99170.47
2023-11-08T18:50:53.923Z,99167.81
2023-11-08T18:53:21.758Z,99170.50
2023-11-08T18:55:49.340Z,99167.91
2023-11-08T18:58:20.720Z,99173.13
2023-11-08T19:00:48.521Z,99162.16
2023-11-08T19:03:16.275Z,99165.72
2023-11-08T19:05:44.327Z,99165.97
2023-11-08T19:08:12.268Z,99160.88
2023-11-08T19:10:39.822Z,99164.41
2023-11-08T19:13:07.517Z,99160.25
2023-11-08T19:15:35.232Z,99167.09
2023-11-08T19:18:04.946Z,99165.41
2023-11-08T19:20:32.607Z,99172.13
2023-11-08T19:23:07.985Z,99173.91
2023-11-08T19:25:40.625Z,99166.13
2023-11-08T19:28:11.461Z,99167.09
2023-11-08T19:30:38.912Z,99169.63
2023-11-08T19:33:07.497Z,99177.38
2023-11-08T19:35:35.145Z,99174.81
2023-11-08T19:38:03.651Z,99173.06
2023-11-08T19:40:31.158Z,99167.09
2023-11-08T19:42:58.598Z,99164.34
2023-11-08T19:45:25.914Z,99163.34
2023-11-08T19:47:53.257Z,99165.00
2023-11-08T19:50:20.645Z,99165.00
2023-11-08T19:52:48.595Z,99160.66
2023-11-08T19:55:16.536Z,99159.78
2023-11-08T19:57:45.459Z,99156.38
2023-11-08T20:00:13.037Z,99161.72
2023-11-08T20:02:40.726Z,99154.78
2023-11-08T20:05:08.675Z,99157.34
2023-11-08T20:07:35.992Z,99158.16
2023-11-08T20:10:03.412Z,99157.25
2023-11-08T20:12:31.056Z,99154.56
2023-11-08T20:14:58.393Z,99157.13
2023-11-08T20:17:26.698Z,99155.47
2023-11-08T20:19:57.871Z,99162.38
2023-11-08T20:22:25.362Z,99164.19
2023-11-08T20:24:53.449Z,99153.00
2023-11-08T20:27:21.413Z,99164.31
2023-11-08T20:29:51.304Z,99162.66
2023-11-08T20:32:18.604Z,99161.88
2023-11-08T20:34:46.132Z,99155.13
2023-11-08T20:37:14.571Z,99161.97
2023-11-08T20:39:41.931Z,99166.25
2023-11-08T20:42:09.231Z,99164.50
2023-11-08T20:44:36.487Z,99169.75
2023-11-08T20:47:03.867Z,99164.66
2023-11-08T20:49:31.301Z,99163.09
2023-11-08T20:51:59.344Z,99158.03
2023-11-08T20:54:28.028Z,99158.97
2023-11-08T20:56:55.412Z,99149.47
2023-11-08T20:59:23.188Z,99153.63
2023-11-08T21:01:50.444Z,99157.13
2023-11-08T21:04:17.789Z,99150.28
2023-11-08T21:06:45.230Z,99148.59
2023-11-08T21:09:12.517Z,99147.63
2023-11-08T21:11:39.848Z,99146.66
2023-11-08T21:14:07.921Z,99143.19
2023-11-08T21:16:35.320Z,99143.19
2023-11-08T21:19:05.869Z,99141.50
2023-11-08T21:21:33.874Z,99131.19
2023-11-08T21:24:01.184Z,99134.59
2023-11-08T21:26:28.536Z,99134.53
2023-11-08T21:28:57.022Z,99132.75
2023-11-08T21:31:24.394Z,99127.53
2023-11-08T21:33:52.001Z,99103.88
2023-11-08T21:36:19.371Z,99132.41
2023-11-08T21:38:46.847Z,99125.34
2023-11-08T21:41:14.603Z,99126.81
2023-11-08T21:43:42.370Z,99130.88
2023-11-08T21:46:10.124Z,99133.19
2023-11-08T21:48:38.092Z,99133.00
2023-11-08T21:51:06.932Z,99131.94
2023-11-08T21:53:34.450Z,99142.84
2023-11-08T21:56:01.954Z,99134.16
2023-11-08T21:58:29.460Z,99131.44
2023-11-08T22:00:57.048Z,99121.75
2023-11-08T22:03:24.503Z,99120.75
2023-11-08T22:05:52.137Z,99119.75
2023-11-08T22:08:19.994Z,99123.00
2023-11-08T22:10:48.026Z,99122.78
2023-11-08T22:13:15.644Z,99124.34
2023-11-08T22:15:43.287Z,99125.09
2023-11-08T22:18:10.960Z,99122.50
2023-11-08T22:20:38.525Z,99124.13
2023-11-08T22:23:05.984Z,99126.66
2023-11-08T22:25:33.543Z,99116.34
2023-11-08T22:28:01.259Z,99114.50
2023-11-08T22:30:28.787Z,99111.91
2023-11-08T22:32:56.481Z,99115.19
2023-11-08T22:35:23.983Z,99107.44
2023-11-08T22:37:51.741Z,99107.34
2023-11-08T22:40:19.366Z,99104.66
2023-11-08T22:42:47.010Z,99103.66
2023-11-08T22:45:14.531Z,99108.63
2023-11-08T22:47:43.391Z,99100.03
2023-11-08T22:50:12.200Z,99100.72
2023-11-08T22:52:40.106Z,99105.78
2023-11-08T22:55:08.070Z,99098.88
2023-11-08T22:57:35.594Z,99099.72
2023-11-08T23:00:03.458Z,99096.19
2023-11-08T23:02:33.289Z,99093.63
2023-11-08T23:05:00.905Z,99092.81
2023-11-08T23:07:28.388Z,99087.69
2023-11-08T23:09:56.058Z,99087.78
2023-11-08T23:12:25.441Z,99087.69
2023-11-08T23:14:58.872Z,99085.97
2023-11-08T23:17:31.262Z,99087.66
2023-11-08T23:19:58.939Z,99085.03
2023-11-08T23:22:26.389Z,99081.72
2023-11-08T23:24:54.003Z,99087.66
2023-11-08T23:27:21.554Z,99080.03
2023-11-08T23:29:49.013Z,99083.53
2023-11-08T23:32:16.453Z,99081.88
2023-11-08T23:34:43.924Z,99070.00
2023-11-08T23:37:11.623Z,99073.50
2023-11-08T23:39:39.048Z,99069.25
2023-11-08T23:42:07.532Z,99066.72
2023-11-08T23:44:35.174Z,99070.19
2023-11-08T23:47:02.569Z,99071.97
2023-11-08T23:49:29.969Z,99063.53
2023-11-08T23:51:57.501Z,99067.06
2023-11-08T23:54:25.022Z,99074.84
2023-11-08T23:56:52.512Z,99072.50
2023-11-08T23:59:20.030Z,99079.44
